Enderlin, North Dakota
Current Conditions -  °F | °C
As of 3:15 AM on Friday 31 Oct 2014 (Local Time) from KGWR Reporting Station
Clear Clear  
Wind Chill: -10°   Ceiling: Unl
Heat Index: -5°   Visibility: 10mi
Dew Point: -8°   Wind: 8mph
Humidity: 80%   Direction: 360°N
Pressure: 30.59"   Gusts: NA
Location:  46.62°N, 97.6°W
Report Text: KGWR 310815Z AUTO 36007KT 10SM CLR M05/M08 A3059 RMK A01 P000
Loading
Personal Weather Stations






























Interactive Weather Map
Tropical Storm Tracking
New forecast layout! Learn more

10-Day Weather Forecast

Advertisements
Track Severe Weather on mobile